Time;durP1;ratioP1;P1;durP2;ratioP2;P2;SDS_P1;SDS_P2;PMS_P1;PMS_P2;Temp;Humidity;BMP_temperature;BMP_pressure;BME280_temperature;BME280_humidity;BME280_pressure;Samples;Min_cycle;Max_cycle;Signal;HPM_P1;HPM_P2
2022/10/31 00:01:18;;;;;;;5.80;2.62;;;;;;;8.96;81.16;99444.25;1832703;77;21146;-79
2022/10/31 00:03:45;;;;;;;7.35;1.77;;;;;;;8.93;81.34;99445.41;1828969;77;21030;-81
2022/10/31 00:06:12;;;;;;;4.45;1.98;;;;;;;8.87;81.56;99437.31;1823083;77;21002;-79
2022/10/31 00:08:40;;;;;;;4.55;1.92;;;;;;;8.81;81.76;99438.28;1828661;77;21480;-80
2022/10/31 00:11:10;;;;;;;4.67;1.70;;;;;;;8.78;81.90;99439.92;1826319;77;21025;-77
2022/10/31 00:13:36;;;;;;;6.78;2.12;;;;;;;8.82;81.90;99443.91;1799506;79;21033;-80
2022/10/31 00:16:05;;;;;;;6.12;2.00;;;;;;;8.91;81.83;99436.80;1816736;77;21084;-81
2022/10/31 00:18:32;;;;;;;4.00;1.87;;;;;;;8.88;81.95;99434.47;1825009;77;21058;-77
2022/10/31 00:21:00;;;;;;;6.75;2.27;;;;;;;8.83;82.14;99433.66;1824148;77;21045;-79
2022/10/31 00:23:28;;;;;;;5.75;2.40;;;;;;;8.79;82.21;99435.48;1823531;77;20993;-79
2022/10/31 00:26:03;;;;;;;3.37;1.90;;;;;;;8.76;82.38;99435.29;1828149;78;21441;-79
2022/10/31 00:28:31;;;;;;;6.87;2.17;;;;;;;8.82;82.27;99438.61;1811048;77;21104;-77
2022/10/31 00:31:05;;;;;;;4.30;1.92;;;;;;;8.85;82.23;99436.97;1813570;77;21611;-77
2022/10/31 00:33:34;;;;;;;7.10;2.08;;;;;;;8.82;82.50;99441.76;1812214;77;21097;-77
2022/10/31 00:36:03;;;;;;;7.67;2.00;;;;;;;8.77;82.66;99441.41;1811558;77;21064;-77
2022/10/31 00:38:30;;;;;;;5.67;2.27;;;;;;;8.71;82.84;99442.92;1817096;77;21007;-76
2022/10/31 00:40:58;;;;;;;5.83;2.20;;;;;;;8.74;83.03;99439.92;1821546;77;21015;-76
2022/10/31 00:43:26;;;;;;;6.72;2.00;;;;;;;8.82;82.83;99443.91;1822400;77;21502;-77
2022/10/31 00:45:53;;;;;;;6.78;1.98;;;;;;;8.82;82.86;99438.61;1840995;77;21063;-76
2022/10/31 00:48:21;;;;;;;6.15;2.52;;;;;;;8.80;82.94;99436.62;1837513;77;21220;-78
2022/10/31 00:50:49;;;;;;;5.33;1.98;;;;;;;8.77;82.91;99433.47;1827878;77;21043;-78
2022/10/31 00:53:16;;;;;;;4.50;1.80;;;;;;;8.79;82.89;99428.86;1819322;77;21493;-77
2022/10/31 00:55:42;;;;;;;6.62;2.70;;;;;;;8.89;82.66;99427.38;1827985;78;21025;-77
2022/10/31 00:58:10;;;;;;;5.40;2.22;;;;;;;8.88;82.77;99432.33;1825770;77;21072;-78
2022/10/31 01:00:37;;;;;;;4.42;1.80;;;;;;;8.81;82.88;99425.55;1826248;77;21416;-78
2022/10/31 01:03:03;;;;;;;6.78;1.72;;;;;;;8.75;83.12;99431.48;1817343;77;21516;-78
2022/10/31 01:05:30;;;;;;;4.55;2.30;;;;;;;8.74;83.17;99434.63;1811776;77;21005;-78
2022/10/31 01:07:56;;;;;;;5.75;2.10;;;;;;;8.81;83.03;99434.82;1827042;78;21103;-79
2022/10/31 01:10:23;;;;;;;7.53;2.30;;;;;;;8.80;83.13;99431.32;1812781;77;21045;-78
2022/10/31 01:12:50;;;;;;;4.28;2.37;;;;;;;8.76;83.33;99431.83;1819923;77;21275;-78
2022/10/31 01:15:21;;;;;;;3.75;2.02;;;;;;;8.68;83.60;99431.31;1848853;77;21011;-79
2022/10/31 01:17:48;;;;;;;10.20;2.17;;;;;;;8.66;83.79;99432.80;1826274;77;21575;-77
2022/10/31 01:20:16;;;;;;;6.30;1.82;;;;;;;8.71;83.71;99433.65;1826097;77;21075;-79
2022/10/31 01:22:44;;;;;;;4.37;2.02;;;;;;;8.65;83.87;99432.48;1831471;77;21485;-78
2022/10/31 01:25:10;;;;;;;5.78;1.80;;;;;;;8.60;84.06;99444.55;1819015;77;21138;-78
2022/10/31 01:27:37;;;;;;;5.12;1.40;;;;;;;8.58;84.30;99454.48;1808286;77;21051;-77
2022/10/31 01:30:07;;;;;;;3.90;1.57;;;;;;;8.64;84.23;99449.85;1826619;77;21000;-79
2022/10/31 01:32:34;;;;;;;7.80;2.27;;;;;;;8.79;84.01;99447.41;1817941;77;21041;-77
2022/10/31 01:35:00;;;;;;;8.55;2.40;;;;;;;8.81;83.92;99449.39;1822791;77;21002;-77
2022/10/31 01:37:28;;;;;;;5.05;1.92;;;;;;;8.78;83.97;99448.38;1817135;77;21162;-77
2022/10/31 01:39:55;;;;;;;5.42;1.80;;;;;;;8.74;83.94;99437.78;1819710;78;21079;-79
2022/10/31 01:42:22;;;;;;;6.33;2.20;;;;;;;8.75;83.88;99430.16;1822568;77;20986;-76
2022/10/31 01:44:58;;;;;;;6.10;2.17;;;;;;;8.81;83.70;99436.97;1824083;77;20995;-80
2022/10/31 01:47:37;;;;;;;7.92;2.12;;;;;;;8.77;83.71;99431.66;1820894;77;21517;-78
2022/10/31 01:50:08;;;;;;;8.75;2.20;;;;;;;8.71;83.78;99436.30;1821177;78;21192;-79
2022/10/31 01:52:44;;;;;;;4.05;1.47;;;;;;;8.63;83.85;99424.34;1805143;77;21049;-81
2022/10/31 01:55:20;;;;;;;3.37;1.60;;;;;;;8.64;83.82;99432.64;1821548;77;21072;-80
2022/10/31 01:57:49;;;;;;;5.95;2.25;;;;;;;8.71;83.73;99431.48;1819646;77;21024;-79
2022/10/31 02:00:17;;;;;;;4.08;1.92;;;;;;;8.66;83.80;99427.50;1816949;77;21080;-78
2022/10/31 02:02:45;;;;;;;7.10;2.30;;;;;;;8.61;83.87;99434.27;1810219;77;21167;-79
2022/10/31 02:05:20;;;;;;;6.85;2.60;;;;;;;8.53;84.08;99423.67;1819794;77;21613;-77
2022/10/31 02:08:13;;;;;;;4.58;2.10;;;;;;;8.54;83.99;99431.97;1825011;77;21021;-78
2022/10/31 02:10:41;;;;;;;;;;;;;;;8.63;83.97;99433.61;1803789;78;21187;-78
2022/10/31 02:13:08;;;;;;;5.03;2.08;;;;;;;8.54;84.02;99440.73;1825067;77;20139;-77
2022/10/31 02:15:38;;;;;;;5.65;1.60;;;;;;;8.49;84.21;99443.53;1817214;77;21130;-78
2022/10/31 02:18:05;;;;;;;7.12;2.62;;;;;;;8.43;84.34;99456.41;1793449;78;21504;-77
2022/10/31 02:20:37;;;;;;;5.58;2.30;;;;;;;8.48;84.29;99453.77;1824296;77;21001;-78
2022/10/31 02:23:28;;;;;;;4.20;2.17;;;;;;;8.50;84.25;99454.44;1826271;77;21064;-77
2022/10/31 02:26:42;;;;;;;5.37;2.00;;;;;;;8.42;84.40;99465.36;1792010;79;21585;-78
2022/10/31 02:29:32;;;;;;;5.00;1.85;;;;;;;8.34;84.54;99462.63;1825113;77;21057;-77
2022/10/31 02:32:10;;;;;;;5.75;2.10;;;;;;;8.38;84.35;99473.26;1824726;77;21586;-78
2022/10/31 02:34:58;;;;;;;4.47;2.12;;;;;;;8.43;84.36;99473.62;1822234;77;21099;-78
2022/10/31 02:37:38;;;;;;;4.35;1.92;;;;;;;8.39;84.41;99480.20;1851072;77;21012;-80
2022/10/31 02:40:26;;;;;;;7.05;2.83;;;;;;;8.34;84.48;99488.28;1814024;77;21062;-81
2022/10/31 02:43:06;;;;;;;4.87;1.60;;;;;;;8.30;84.48;99497.53;1812649;77;21438;-78
2022/10/31 02:45:45;;;;;;;3.72;1.75;;;;;;;8.35;84.37;99495.24;1823343;77;21064;-77
2022/10/31 02:48:16;;;;;;;4.25;2.00;;;;;;;8.42;84.11;99506.39;1816068;77;21521;-78
2022/10/31 02:50:48;;;;;;;4.72;2.20;;;;;;;8.39;84.25;99500.55;1836668;77;21048;-77
2022/10/31 02:53:15;;;;;;;5.45;1.85;;;;;;;8.35;84.30;99509.80;1801319;77;21767;-76
2022/10/31 02:55:50;;;;;;;4.75;1.95;;;;;;;8.32;84.35;99512.25;1826244;77;21123;-78
2022/10/31 02:58:22;;;;;;;4.05;1.80;;;;;;;8.42;84.12;99514.80;1802514;77;21008;-79
2022/10/31 03:01:02;;;;;;;6.62;2.10;;;;;;;8.53;83.82;99511.88;1824301;77;21052;-77
2022/10/31 03:03:53;;;;;;;3.87;2.20;;;;;;;8.53;83.68;99511.88;1832747;77;21087;-79
2022/10/31 03:06:57;;;;;;;5.90;2.30;;;;;;;8.52;83.66;99518.64;1837441;77;21075;-76
2022/10/31 03:09:44;;;;;;;7.15;2.33;;;;;;;8.53;83.60;99515.84;1831760;77;21552;-81
2022/10/31 03:12:28;;;;;;;5.67;2.65;;;;;;;8.65;83.11;99520.34;1816938;76;21028;-78
2022/10/31 03:15:15;;;;;;;6.10;2.52;;;;;;;8.75;82.74;99523.70;1818780;77;26924;-79
2022/10/31 03:18:18;;;;;;;10.50;2.52;;;;;;;8.73;82.51;99523.51;1759476;80;21029;-77
2022/10/31 03:20:54;;;;;;;4.03;2.20;;;;;;;8.72;82.48;99535.11;1741775;80;21013;-78
2022/10/31 03:23:22;;;;;;;5.00;2.30;;;;;;;8.70;82.32;99537.91;1770365;80;21118;-79
2022/10/31 03:25:51;;;;;;;4.08;1.95;;;;;;;8.79;82.13;99541.43;1791396;79;21484;-78
2022/10/31 03:28:20;;;;;;;6.95;2.50;;;;;;;8.93;81.70;99551.89;1789196;79;21048;-77
2022/10/31 03:30:46;;;;;;;3.98;2.10;;;;;;;8.96;81.34;99555.52;1743082;80;21101;-79
2022/10/31 03:33:17;;;;;;;5.10;2.30;;;;;;;8.96;81.10;99565.65;1774996;79;21016;-79
2022/10/31 03:35:47;;;;;;;3.92;1.70;;;;;;;8.97;80.83;99566.47;1773682;80;21055;-80
2022/10/31 03:38:13;;;;;;;4.17;1.92;;;;;;;8.97;80.37;99569.94;1769972;79;21044;-78
2022/10/31 03:40:41;;;;;;;6.10;1.52;;;;;;;9.03;79.92;99575.91;1779074;79;21572;-78
2022/10/31 03:43:12;;;;;;;4.20;1.70;;;;;;;9.13;79.30;99578.41;1744823;80;21073;-79
2022/10/31 03:45:44;;;;;;;4.47;1.70;;;;;;;9.12;78.23;99582.07;1784783;79;21049;-77
2022/10/31 03:48:13;;;;;;;3.75;1.65;;;;;;;9.08;77.51;99588.69;1785268;79;21100;-78
2022/10/31 03:50:51;;;;;;;2.63;1.63;;;;;;;9.07;76.81;99592.31;1771841;79;21348;-78
2022/10/31 03:53:29;;;;;;;3.83;1.10;;;;;;;9.03;75.55;99590.98;1774648;80;21041;-75
2022/10/31 03:56:04;;;;;;;1.50;0.98;;;;;;;8.93;71.63;99597.75;1732428;82;21041;-77
2022/10/31 03:58:39;;;;;;;3.98;1.40;;;;;;;8.79;68.92;99597.05;1733715;80;21026;-75
2022/10/31 04:01:07;;;;;;;2.45;1.32;;;;;;;8.64;68.23;99607.41;1764663;80;21229;-75
2022/10/31 04:03:36;;;;;;;3.20;1.42;;;;;;;8.50;68.12;99609.31;1764394;80;20968;-77
2022/10/31 04:06:07;;;;;;;6.22;2.52;;;;;;;8.40;68.19;99612.05;1762810;80;21001;-74
2022/10/31 04:08:39;;;;;;;11.28;10.08;;;;;;;8.29;67.26;99615.81;1787653;80;21001;-75
2022/10/31 04:11:06;;;;;;;6.85;4.12;;;;;;;8.16;66.71;99620.19;1766220;79;21119;-76
2022/10/31 04:13:37;;;;;;;8.35;3.72;;;;;;;8.03;66.64;99622.41;1781770;79;21162;-80
2022/10/31 04:16:07;;;;;;;6.30;3.22;;;;;;;7.92;67.01;99623.97;1774595;80;21043;-77
2022/10/31 04:18:34;;;;;;;7.87;3.33;;;;;;;7.81;66.96;99632.50;1763466;80;21080;-74
2022/10/31 04:21:06;;;;;;;6.15;2.87;;;;;;;7.73;67.03;99636.41;1767890;80;21021;-77
2022/10/31 04:23:35;;;;;;;5.28;2.30;;;;;;;7.65;67.22;99641.63;1780383;79;21032;-76
2022/10/31 04:26:03;;;;;;;2.95;1.70;;;;;;;7.58;67.35;99640.06;1773921;79;21497;-77
2022/10/31 04:28:32;;;;;;;3.17;2.00;;;;;;;7.52;67.52;99639.85;1774409;79;21197;-79
2022/10/31 04:30:59;;;;;;;2.47;1.25;;;;;;;7.46;67.45;99647.39;1761764;79;21607;-76
2022/10/31 04:33:25;;;;;;;2.08;1.20;;;;;;;7.39;67.38;99648.14;1770166;79;21053;-77
2022/10/31 04:35:52;;;;;;;3.75;1.25;;;;;;;7.32;67.48;99652.35;1777234;80;21001;-77
2022/10/31 04:38:18;;;;;;;5.47;1.20;;;;;;;7.25;67.41;99655.59;1773146;81;21517;-77
2022/10/31 04:40:45;;;;;;;2.72;1.00;;;;;;;7.19;67.30;99661.98;1766922;80;21534;-77
2022/10/31 04:43:15;;;;;;;2.08;1.00;;;;;;;7.14;67.25;99657.61;1760566;80;21584;-78
2022/10/31 04:45:43;;;;;;;1.67;0.70;;;;;;;7.07;67.34;99663.50;1769272;80;21109;-79
2022/10/31 04:48:10;;;;;;;2.55;1.00;;;;;;;7.02;67.20;99664.91;1737941;81;21071;-79
2022/10/31 04:50:38;;;;;;;2.87;1.32;;;;;;;6.97;67.24;99666.66;1738805;80;21260;-79
2022/10/31 04:53:05;;;;;;;3.85;1.57;;;;;;;6.93;67.10;99675.03;1753068;80;21020;-81
2022/10/31 04:55:34;;;;;;;4.42;1.17;;;;;;;6.88;66.73;99672.34;1766531;81;21076;-79
2022/10/31 04:58:15;;;;;;;2.67;1.20;;;;;;;6.84;66.64;99685.50;1763395;80;21034;-78
2022/10/31 05:00:43;;;;;;;2.83;1.20;;;;;;;6.80;66.67;99695.16;1770604;80;21053;-81
2022/10/31 05:03:10;;;;;;;2.00;1.20;;;;;;;6.76;66.70;99692.47;1764069;80;21161;-80
2022/10/31 05:05:37;;;;;;;4.00;1.12;;;;;;;6.74;66.59;99706.30;1720542;82;21147;-78
2022/10/31 05:08:04;;;;;;;5.15;1.17;;;;;;;6.73;66.55;99705.97;1763312;80;21034;-78
2022/10/31 05:10:31;;;;;;;5.87;3.62;;;;;;;6.70;66.11;99713.67;1763086;80;21630;-78
2022/10/31 05:13:02;;;;;;;7.70;6.05;;;;;;;6.67;66.40;99719.26;1769792;80;21045;-82
2022/10/31 05:15:31;;;;;;;3.33;2.33;;;;;;;6.67;66.11;99725.86;1771167;80;21537;-77
2022/10/31 05:18:16;;;;;;;3.30;1.30;;;;;;;6.65;65.97;99719.39;1762032;80;20985;-77
2022/10/31 05:20:54;;;;;;;3.27;1.32;;;;;;;6.65;65.39;99731.77;1769842;80;21053;-80
2022/10/31 05:23:26;;;;;;;4.22;1.57;;;;;;;6.64;65.61;99730.09;1771601;80;21061;-79
2022/10/31 05:25:53;;;;;;;3.25;1.55;;;;;;;6.62;65.42;99736.00;1714736;82;21100;-79
2022/10/31 05:28:20;;;;;;;2.75;1.00;;;;;;;6.64;65.39;99745.44;1724068;82;21515;-78
2022/10/31 05:30:46;;;;;;;3.80;1.73;;;;;;;6.65;65.10;99742.33;1761342;80;21101;-78
2022/10/31 05:33:15;;;;;;;2.37;0.90;;;;;;;6.64;65.18;99755.99;1778080;80;21474;-78
2022/10/31 05:35:53;;;;;;;1.30;1.00;;;;;;;6.67;65.16;99761.50;1777502;79;21063;-79
2022/10/31 05:38:41;;;;;;;4.92;1.20;;;;;;;6.68;65.33;99770.60;1745183;80;21115;-79
2022/10/31 05:41:10;;;;;;;2.47;1.07;;;;;;;6.71;65.29;99768.16;1760424;80;22295;-77
2022/10/31 05:43:39;;;;;;;1.75;1.02;;;;;;;6.72;65.27;99778.22;1741020;80;21026;-77
2022/10/31 05:46:06;;;;;;;1.77;1.02;;;;;;;6.75;65.33;99783.23;1770076;79;20930;-78
2022/10/31 05:48:51;;;;;;;9.78;3.10;;;;;;;6.77;64.69;99789.20;1759142;80;22472;-77
2022/10/31 05:51:35;;;;;;;3.25;1.80;;;;;;;6.79;64.77;99789.39;1718321;82;21056;-76
2022/10/31 05:54:03;;;;;;;3.22;1.07;;;;;;;6.81;64.44;99801.13;1742229;80;21184;-78
2022/10/31 05:56:30;;;;;;;1.75;0.93;;;;;;;6.85;64.47;99807.30;1763287;80;21497;-79
2022/10/31 05:58:56;;;;;;;1.20;0.90;;;;;;;6.88;64.55;99805.70;1765434;80;21121;-81
2022/10/31 06:01:23;;;;;;;3.42;0.80;;;;;;;6.94;64.43;99814.05;1766950;80;21092;-79
2022/10/31 06:03:50;;;;;;;1.90;1.00;;;;;;;6.97;64.44;99825.63;1774900;80;21069;-80
2022/10/31 06:17:27;;;;;;;2.40;1.12;;;;;;;8.38;60.44;99831.09;1860293;77;28094;-85
2022/10/31 06:19:55;;;;;;;1.47;1.02;;;;;;;8.45;59.53;99840.95;1852070;77;20995;-83
2022/10/31 06:22:25;;;;;;;2.35;1.20;;;;;;;8.45;59.66;99834.33;1830510;77;21287;-85
2022/10/31 06:24:52;;;;;;;4.08;1.57;;;;;;;8.49;59.30;99847.28;1830240;77;20965;-85
2022/10/31 06:27:24;;;;;;;3.05;1.20;;;;;;;8.46;58.11;99851.89;1794002;78;21078;-84
2022/10/31 06:29:51;;;;;;;5.62;1.42;;;;;;;8.37;58.12;99853.27;1799874;77;21449;-82
2022/10/31 06:32:23;;;;;;;4.47;2.45;;;;;;;8.26;57.64;99859.10;1814592;77;21037;-84
2022/10/31 06:34:50;;;;;;;2.80;1.17;;;;;;;8.16;57.96;99855.70;1812704;77;21730;-85
2022/10/31 06:37:17;;;;;;;2.12;0.98;;;;;;;8.14;57.79;99866.92;1814691;78;20974;-85
2022/10/31 06:39:46;;;;;;;1.10;1.00;;;;;;;8.13;57.04;99867.92;1826581;78;20957;-83
2022/10/31 06:42:16;;;;;;;1.67;0.90;;;;;;;8.11;55.33;99874.33;1835403;77;20973;-83
2022/10/31 06:44:44;;;;;;;1.75;0.88;;;;;;;8.03;55.37;99879.03;1829269;78;21080;-86
2022/10/31 06:47:26;;;;;;;1.95;1.00;;;;;;;7.98;54.94;99880.81;1813804;76;21080;-86
2022/10/31 06:49:54;;;;;;;2.22;1.40;;;;;;;7.96;53.92;99893.36;1818494;78;21501;-86
2022/10/31 06:52:23;;;;;;;1.37;1.07;;;;;;;7.91;53.54;99884.20;1833083;76;20930;-86
2022/10/31 06:54:51;;;;;;;1.87;1.10;;;;;;;7.88;53.57;99891.45;1828950;77;21040;-86
2022/10/31 06:57:18;;;;;;;1.90;1.35;;;;;;;7.88;52.57;99886.66;1814448;78;21032;-86
2022/10/31 06:59:46;;;;;;;2.42;1.75;;;;;;;7.86;52.17;99894.73;1828857;78;21131;-88
2022/10/31 07:02:20;;;;;;;1.42;1.12;;;;;;;7.85;52.57;99898.84;1821201;78;21031;-88
2022/10/31 07:04:48;;;;;;;2.12;1.12;;;;;;;7.85;52.84;99898.84;1797029;78;21477;-87
2022/10/31 07:07:16;;;;;;;1.20;1.07;;;;;;;7.88;53.49;99895.42;1825532;78;21491;-88
2022/10/31 07:09:43;;;;;;;3.02;1.35;;;;;;;7.94;54.06;99892.67;1819525;76;21041;-87
2022/10/31 07:12:10;;;;;;;2.02;1.10;;;;;;;7.99;54.48;99890.41;1833178;78;21644;-87
2022/10/31 07:14:39;;;;;;;2.72;1.30;;;;;;;8.03;54.51;99897.06;1822710;78;21900;-85
2022/10/31 07:17:07;;;;;;;1.90;1.17;;;;;;;8.06;54.75;99894.13;1805371;78;21063;-88
2022/10/31 07:19:39;;;;;;;2.17;1.47;;;;;;;8.10;54.76;99902.61;1800395;79;20906;-88
2022/10/31 07:22:06;;;;;;;2.85;1.10;;;;;;;8.15;54.87;99899.50;1804307;78;21013;-89
2022/10/31 07:24:33;;;;;;;2.60;1.20;;;;;;;8.20;55.06;99897.25;1779096;79;21227;-87
2022/10/31 07:27:07;;;;;;;2.08;0.95;;;;;;;8.27;55.08;99901.80;1790350;79;21548;-88
2022/10/31 07:29:35;;;;;;;2.05;1.10;;;;;;;8.39;54.89;99900.27;1804206;79;21024;-88
2022/10/31 07:32:01;;;;;;;2.77;1.20;;;;;;;8.48;55.01;99906.50;1798157;79;21017;-87
2022/10/31 07:34:28;;;;;;;1.55;0.95;;;;;;;8.57;54.63;99904.27;1803707;79;21033;-87
2022/10/31 07:37:14;;;;;;;3.27;1.00;;;;;;;8.63;54.63;99901.87;1805098;79;22196;-87
2022/10/31 07:39:40;;;;;;;4.17;1.22;;;;;;;8.70;54.05;99906.05;1797601;79;21060;-87
2022/10/31 07:42:08;;;;;;;4.50;1.15;;;;;;;8.76;53.84;99897.49;1798232;79;21417;-86
2022/10/31 07:44:35;;;;;;;1.60;1.02;;;;;;;8.85;53.52;99911.66;1796073;79;21061;-87
2022/10/31 07:47:20;;;;;;;3.00;0.90;;;;;;;8.93;53.12;99903.77;1777980;79;21056;-88
2022/10/31 07:50:06;;;;;;;2.42;1.10;;;;;;;9.01;52.83;99908.30;1775728;81;21134;-87
2022/10/31 07:52:35;;;;;;;1.80;1.10;;;;;;;9.08;52.52;99914.66;1792285;79;20945;-88
2022/10/31 07:55:05;;;;;;;1.98;1.15;;;;;;;9.16;52.45;99911.23;1753876;79;21095;-86
2022/10/31 07:57:31;;;;;;;2.15;1.10;;;;;;;9.23;51.60;99915.77;1799812;79;21560;-86
2022/10/31 07:59:58;;;;;;;2.60;1.10;;;;;;;9.27;51.13;99923.39;1804730;78;21294;-86
2022/10/31 08:02:24;;;;;;;2.98;1.80;;;;;;;9.25;51.32;99920.41;1804326;79;21894;-87
2022/10/31 08:04:53;;;;;;;3.42;1.95;;;;;;;9.32;51.54;99923.77;1779987;79;21037;-87
2022/10/31 08:07:38;;;;;;;5.85;3.80;;;;;;;9.37;51.50;99921.48;1801002;79;21028;-88
2022/10/31 08:10:06;;;;;;;7.50;4.15;;;;;;;9.43;51.60;99921.69;1802935;79;21075;-87
2022/10/31 08:12:34;;;;;;;6.60;3.30;;;;;;;9.52;51.60;99929.21;1775773;79;21048;-87
2022/10/31 08:15:01;;;;;;;3.72;2.02;;;;;;;9.64;51.52;99923.96;1776052;79;21180;-86
2022/10/31 08:17:29;;;;;;;4.55;2.33;;;;;;;9.76;51.09;99933.80;1807871;78;20982;-87
2022/10/31 08:19:57;;;;;;;2.62;1.92;;;;;;;9.89;50.22;99925.89;1810005;77;21022;-87
2022/10/31 08:22:29;;;;;;;1.98;1.00;;;;;;;10.01;49.65;99937.41;1811323;78;21587;-85
2022/10/31 08:24:56;;;;;;;2.62;1.22;;;;;;;10.17;48.75;99929.16;1795131;78;21094;-85
2022/10/31 08:27:23;;;;;;;2.70;1.40;;;;;;;10.30;47.77;99928.72;1803318;77;21519;-86
2022/10/31 08:29:49;;;;;;;2.92;1.70;;;;;;;10.40;47.28;99942.20;1805621;77;21088;-87
2022/10/31 08:32:16;;;;;;;1.10;1.00;;;;;;;10.53;46.94;99932.95;1786881;78;20997;-88
2022/10/31 08:35:01;;;;;;;2.47;0.82;;;;;;;10.66;45.82;99934.61;1795814;78;21042;-87
2022/10/31 08:37:54;;;;;;;4.85;1.25;;;;;;;10.76;45.13;99931.83;1808046;78;20931;-88
2022/10/31 08:40:20;;;;;;;1.92;1.00;;;;;;;10.79;45.34;99929.64;1810212;76;21019;-86
2022/10/31 08:42:47;;;;;;;2.55;1.50;;;;;;;10.90;45.64;99929.83;1816601;78;21030;-87
2022/10/31 08:45:13;;;;;;;3.92;1.30;;;;;;;11.08;45.17;99934.16;1813191;77;21092;-87
2022/10/31 08:47:42;;;;;;;1.65;1.10;;;;;;;11.21;44.99;99930.49;1785264;77;21021;-88
2022/10/31 08:50:09;;;;;;;1.62;1.10;;;;;;;11.38;44.75;99925.99;1804067;78;21076;-88
2022/10/31 08:52:36;;;;;;;1.65;1.30;;;;;;;11.63;44.50;99923.25;1796943;77;21618;-87
2022/10/31 08:55:04;;;;;;;1.47;1.12;;;;;;;11.90;44.45;99918.89;1802381;77;21161;-87
2022/10/31 08:57:42;;;;;;;3.20;1.37;;;;;;;12.31;44.10;99909.88;1777796;78;21017;-86
2022/10/31 09:00:11;;;;;;;2.08;1.37;;;;;;;12.93;43.21;99917.77;1800658;77;21018;-88
2022/10/31 09:02:40;;;;;;;1.40;1.30;;;;;;;13.55;41.69;99913.23;1800360;77;21004;-87
2022/10/31 09:05:07;;;;;;;1.95;1.40;;;;;;;14.06;40.65;99911.98;1815066;77;21245;-86
2022/10/31 09:07:34;;;;;;;2.45;1.45;;;;;;;14.53;39.04;99912.50;1805069;78;22003;-87
2022/10/31 09:10:01;;;;;;;1.30;1.20;;;;;;;14.89;39.23;99909.81;1792797;79;21216;-87
2022/10/31 09:12:29;;;;;;;3.42;1.60;;;;;;;15.49;37.63;99909.42;1807245;76;20938;-84
2022/10/31 09:15:00;;;;;;;2.33;1.40;;;;;;;16.09;37.46;99905.77;1781303;79;20974;-87
2022/10/31 09:17:29;;;;;;;2.85;1.50;;;;;;;16.83;36.83;99914.86;1828435;78;21210;-87
2022/10/31 09:20:15;;;;;;;5.20;1.70;;;;;;;17.44;35.52;99911.96;1734909;81;21119;-86
2022/10/31 09:22:43;;;;;;;3.35;1.42;;;;;;;18.13;34.28;99896.27;1734064;82;21122;-90
2022/10/31 09:25:12;;;;;;;2.33;1.55;;;;;;;18.55;33.76;99906.62;1738230;77;21522;-87
2022/10/31 09:27:39;;;;;;;1.80;1.32;;;;;;;19.12;33.04;99910.67;1846425;77;20982;-88
2022/10/31 09:30:09;;;;;;;4.25;1.80;;;;;;;19.64;32.06;99898.59;1851740;77;20973;-88
2022/10/31 09:32:37;;;;;;;2.70;1.40;;;;;;;20.04;31.63;99906.77;1827976;78;20986;-88
2022/10/31 09:35:05;;;;;;;2.15;1.60;;;;;;;20.41;31.25;99909.39;1832927;78;20963;-89
2022/10/31 09:37:32;;;;;;;2.77;1.42;;;;;;;20.95;31.30;99912.16;1824389;78;21026;-88
2022/10/31 09:39:58;;;;;;;3.10;1.65;;;;;;;21.65;30.33;99910.03;1826717;78;20982;-86
2022/10/31 09:42:35;;;;;;;1.60;1.50;;;;;;;22.06;30.04;99910.06;1843960;77;21489;-88
2022/10/31 09:45:22;;;;;;;1.85;1.40;;;;;;;22.49;29.22;99906.89;1845812;77;21581;-88
2022/10/31 09:48:16;;;;;;;3.70;1.52;;;;;;;22.76;28.61;99893.56;1816730;78;21072;-88
2022/10/31 09:51:08;;;;;;;4.55;1.70;;;;;;;22.94;28.10;99897.91;1831808;77;21080;-87
2022/10/31 09:54:40;;;;;;;1.77;1.52;;;;;;;22.74;27.58;99905.17;1804420;77;21021;-88
2022/10/31 09:57:14;;;;;;;3.40;1.60;;;;;;;22.60;27.86;99907.91;1820099;78;21782;-88
2022/10/31 09:59:42;;;;;;;1.55;1.45;;;;;;;22.74;27.92;99906.52;1800145;78;21020;-87
2022/10/31 10:02:30;;;;;;;3.10;1.70;;;;;;;23.06;27.12;99911.95;1815875;78;21049;-88
2022/10/31 10:05:06;;;;;;;2.62;1.40;;;;;;;23.13;26.91;99903.13;1851116;77;21062;-86
2022/10/31 10:08:12;;;;;;;2.17;1.62;;;;;;;22.92;27.09;99906.81;1854339;77;20997;-89
2022/10/31 10:11:17;;;;;;;3.90;2.87;;;;;;;22.96;27.02;99901.19;1823844;75;21063;-86
2022/10/31 10:14:01;;;;;;;4.20;2.30;;;;;;;23.18;26.44;99905.92;1815270;78;21503;-84
2022/10/31 10:16:59;;;;;;;3.45;1.90;;;;;;;23.32;25.95;99903.15;1841027;77;21025;-84
2022/10/31 10:19:56;;;;;;;3.10;1.60;;;;;;;23.33;26.27;99904.80;1825021;78;21268;-84
2022/10/31 10:22:46;;;;;;;3.95;1.55;;;;;;;23.54;26.25;99918.64;1820029;77;21068;-85
2022/10/31 10:25:36;;;;;;;1.37;1.27;;;;;;;24.14;25.77;99912.93;1824842;78;21544;-83
2022/10/31 10:28:21;;;;;;;2.77;1.60;;;;;;;24.44;25.43;99907.58;1843236;77;21083;-84
2022/10/31 10:31:10;;;;;;;1.80;1.70;;;;;;;24.51;25.11;99909.55;1823471;78;21001;-85
2022/10/31 10:33:53;;;;;;;1.60;1.50;;;;;;;24.38;24.87;99906.70;1804150;78;21017;-84
2022/10/31 10:36:35;;;;;;;1.82;1.50;;;;;;;24.32;25.03;99899.58;1847149;77;21681;-85
2022/10/31 10:39:19;;;;;;;3.47;2.22;;;;;;;24.52;25.16;99901.70;1835267;77;21499;-84
2022/10/31 10:47:40;;;;;;;3.30;2.08;;;;;;;25.64;24.34;99900.41;1812669;78;21002;-85
2022/10/31 10:50:24;;;;;;;2.50;2.08;;;;;;;26.09;23.96;99900.90;1812662;78;21048;-85
2022/10/31 10:52:59;;;;;;;3.83;2.08;;;;;;;26.30;23.61;99904.50;1820392;78;21109;-85
2022/10/31 10:55:55;;;;;;;4.12;2.20;;;;;;;26.02;23.81;99908.48;1846047;77;21098;-84
2022/10/31 10:58:22;;;;;;;5.30;2.87;;;;;;;25.75;23.53;99908.61;1819715;77;21061;-84
2022/10/31 11:00:50;;;;;;;5.97;3.33;;;;;;;25.66;23.56;99913.20;1811233;77;21033;-84
2022/10/31 11:03:17;;;;;;;6.15;3.62;;;;;;;25.65;23.69;99906.66;1808773;78;21416;-84
2022/10/31 11:05:54;;;;;;;5.85;4.17;;;;;;;25.88;23.45;99912.21;1807509;78;21503;-83
2022/10/31 11:08:35;;;;;;;5.83;3.80;;;;;;;25.99;23.42;99904.41;1839429;77;21037;-83
2022/10/31 11:11:07;;;;;;;6.53;5.95;;;;;;;26.30;23.24;99900.42;1843716;75;21061;-80
2022/10/31 11:13:36;;;;;;;4.25;3.67;;;;;;;26.76;23.22;99905.16;1824085;76;21008;-81
2022/10/31 11:16:06;;;;;;;5.92;3.00;;;;;;;27.26;22.37;99900.27;1830003;76;21013;-79
2022/10/31 11:18:41;;;;;;;3.77;2.52;;;;;;;27.31;22.48;99895.33;1817878;78;21955;-81
2022/10/31 11:21:24;;;;;;;3.92;2.95;;;;;;;27.13;22.25;99899.98;1823450;77;21031;-78
2022/10/31 11:24:13;;;;;;;6.12;4.05;;;;;;;27.00;22.71;99896.70;1816749;78;21104;-79
2022/10/31 11:26:42;;;;;;;9.43;4.12;;;;;;;27.19;22.56;99906.50;1819311;77;21658;-79
2022/10/31 11:29:25;;;;;;;4.75;2.95;;;;;;;27.47;22.38;99897.50;1812440;78;21029;-81
2022/10/31 11:31:54;;;;;;;3.92;3.40;;;;;;;27.81;21.84;99905.03;1822299;78;21148;-79
2022/10/31 11:34:33;;;;;;;5.33;3.20;;;;;;;27.82;21.78;99909.41;1808468;78;21078;-80
2022/10/31 11:37:26;;;;;;;3.10;2.37;;;;;;;27.75;21.80;99911.05;1816200;77;21009;-78
2022/10/31 11:39:56;;;;;;;8.60;5.08;;;;;;;28.01;21.75;99903.63;1808318;78;21072;-76
2022/10/31 11:42:25;;;;;;;4.30;2.83;;;;;;;28.04;21.62;99913.16;1811229;78;21568;-77
2022/10/31 11:44:54;;;;;;;3.72;2.50;;;;;;;28.00;21.64;99914.27;1813936;78;21148;-73
2022/10/31 11:47:29;;;;;;;6.03;2.80;;;;;;;27.97;21.34;99909.37;1811110;78;21133;-76
2022/10/31 11:49:56;;;;;;;2.75;1.70;;;;;;;27.92;21.63;99903.92;1820158;77;21032;-78
2022/10/31 11:52:25;;;;;;;3.22;2.22;;;;;;;27.91;20.75;99899.58;1816820;78;21010;-77
2022/10/31 11:54:59;;;;;;;7.35;2.67;;;;;;;27.64;21.43;99906.19;1805212;78;21052;-75
2022/10/31 11:57:45;;;;;;;5.55;2.27;;;;;;;27.70;21.46;99906.16;1819209;78;21246;-78
2022/10/31 12:00:26;;;;;;;4.60;2.62;;;;;;;28.00;21.25;99906.06;1788281;77;21361;-76
2022/10/31 12:03:24;;;;;;;2.75;2.40;;;;;;;28.32;20.86;99909.45;1822473;77;20962;-78
2022/10/31 12:06:05;;;;;;;4.92;2.90;;;;;;;28.31;21.07;99919.57;1805103;78;21578;-75
2022/10/31 12:08:35;;;;;;;5.80;4.50;;;;;;;28.17;21.24;99915.84;1814008;78;21057;-78
2022/10/31 12:11:30;;;;;;;6.12;5.20;;;;;;;28.40;21.16;99915.71;1811263;78;21091;-75
2022/10/31 12:14:04;;;;;;;3.45;2.85;;;;;;;28.93;21.07;99904.15;1820092;77;21494;-76
2022/10/31 12:16:43;;;;;;;;;;;;;;;29.26;20.62;99906.61;1825968;77;21124;-74
2022/10/31 12:19:21;;;;;;;3.67;2.17;;;;;;;29.25;20.19;99922.77;1757054;79;20165;-72
2022/10/31 12:22:09;;;;;;;2.52;2.12;;;;;;;29.20;20.35;99914.05;1804127;79;21259;-76
2022/10/31 12:25:13;;;;;;;2.42;2.20;;;;;;;28.92;20.15;99909.37;1803169;78;21197;-77